createdAt,value
2019-04-27T00:00:48.647Z,98271.87
2019-04-27T00:03:25.411Z,98281.06
2019-04-27T00:06:05.343Z,98280.16
2019-04-27T00:08:47.155Z,98284.02
2019-04-27T00:11:53.130Z,98290.70
2019-04-27T00:14:27.401Z,98285.73
2019-04-27T00:17:40.479Z,98284.64
2019-04-27T00:20:13.133Z,98285.77
2019-04-27T00:22:58.988Z,98284.63
2019-04-27T00:25:32.854Z,98276.66
2019-04-27T00:28:06.759Z,98281.24
2019-04-27T00:30:40.115Z,98281.19
2019-04-27T00:33:13.702Z,98270.52
2019-04-27T00:36:03.079Z,98271.69
2019-04-27T00:39:00.908Z,98267.95
2019-04-27T00:41:34.026Z,98263.55
2019-04-27T00:44:08.306Z,98258.83
2019-04-27T00:46:43.138Z,98257.27
2019-04-27T00:49:20.102Z,98252.20
2019-04-27T00:51:53.605Z,98245.03
2019-04-27T00:54:27.386Z,98240.45
2019-04-27T00:57:17.370Z,98237.66
2019-04-27T01:00:08.178Z,98225.24
2019-04-27T01:03:03.800Z,98222.88
2019-04-27T01:05:36.782Z,98219.53
2019-04-27T01:08:10.041Z,98228.45
2019-04-27T01:10:41.353Z,98218.02
2019-04-27T01:13:13.536Z,98225.19
2019-04-27T01:15:47.281Z,98218.77
2019-04-27T01:18:20.697Z,98218.58
2019-04-27T01:20:52.359Z,98221.70
2019-04-27T01:23:25.118Z,98224.34
2019-04-27T01:26:28.694Z,98227.47
2019-04-27T01:29:03.906Z,98218.48
2019-04-27T01:31:36.367Z,98219.67
2019-04-27T01:34:09.857Z,98226.56
2019-04-27T01:36:43.193Z,98224.29
2019-04-27T01:39:19.047Z,98227.47
2019-04-27T01:41:51.710Z,98224.98
2019-04-27T01:44:25.736Z,98231.23
2019-04-27T01:46:59.916Z,98234.50
2019-04-27T01:49:37.527Z,98235.27
2019-04-27T01:52:11.047Z,98233.95
2019-04-27T01:54:44.432Z,98240.79
2019-04-27T01:57:19.374Z,98238.00
2019-04-27T01:59:52.990Z,98240.28
2019-04-27T02:02:35.787Z,98238.95
2019-04-27T02:05:40.178Z,98242.25
2019-04-27T02:08:13.495Z,98241.74
2019-04-27T02:10:49.659Z,98243.69
2019-04-27T02:13:23.635Z,98238.28
2019-04-27T02:15:56.659Z,98247.69
2019-04-27T02:18:37.569Z,98250.81
2019-04-27T02:21:05.296Z,98255.87
2019-04-27T02:23:41.352Z,98257.84
2019-04-27T02:26:14.745Z,98257.14
2019-04-27T02:29:12.450Z,98254.07
2019-04-27T02:32:10.454Z,98252.75
2019-04-27T02:34:51.905Z,98245.23
2019-04-27T02:37:26.791Z,98250.95
2019-04-27T02:40:00.846Z,98241.89
2019-04-27T02:42:43.368Z,98242.94
2019-04-27T02:45:19.924Z,98240.57
2019-04-27T02:47:53.259Z,98236.25
2019-04-27T02:50:29.098Z,98236.59
2019-04-27T02:53:06.394Z,98229.48
2019-04-27T02:55:39.898Z,98229.21
2019-04-27T02:58:13.073Z,98220.88
2019-04-27T03:00:46.346Z,98223.30
2019-04-27T03:03:23.011Z,98225.33
2019-04-27T03:05:55.831Z,98217.25
2019-04-27T03:08:29.354Z,98221.38
2019-04-27T03:11:04.199Z,98224.64
2019-04-27T03:14:05.659Z,98227.36
2019-04-27T03:16:53.067Z,98226.31
2019-04-27T03:19:52.384Z,98226.73
2019-04-27T03:22:30.209Z,98233.14
2019-04-27T03:25:21.839Z,98226.80
2019-04-27T03:28:10.985Z,98224.70
2019-04-27T03:30:47.067Z,98221.12
2019-04-27T03:33:22.438Z,98224.89
2019-04-27T03:35:57.409Z,98220.25
2019-04-27T03:38:35.096Z,98218.45
2019-04-27T03:41:09.674Z,98214.62
2019-04-27T03:43:43.579Z,98217.55
2019-04-27T03:46:20.834Z,98215.57
2019-04-27T03:48:55.304Z,98219.63
2019-04-27T03:51:36.976Z,98213.66
2019-04-27T03:54:29.628Z,98214.82
2019-04-27T03:57:23.712Z,98215.32
2019-04-27T04:00:01.426Z,98210.17
2019-04-27T04:02:34.884Z,98213.64
2019-04-27T04:05:09.657Z,98210.58
2019-04-27T04:07:42.224Z,98217.12
2019-04-27T04:10:15.971Z,98212.38
2019-04-27T04:13:01.696Z,98213.44
2019-04-27T04:15:52.107Z,98213.77
2019-04-27T04:18:29.683Z,98206.39
2019-04-27T04:21:02.824Z,98206.11
2019-04-27T04:23:37.445Z,98203.36
2019-04-27T04:26:12.005Z,98202.16
2019-04-27T04:28:46.255Z,98207.51
2019-04-27T04:31:21.019Z,98212.67
2019-04-27T04:33:54.586Z,98206.61
2019-04-27T04:36:29.778Z,98211.35
2019-04-27T04:39:02.525Z,98212.03
2019-04-27T04:41:51.668Z,98219.69
2019-04-27T04:44:35.563Z,98213.43
2019-04-27T04:47:30.788Z,98210.66
2019-04-27T04:50:11.351Z,98223.31
2019-04-27T04:52:42.412Z,98228.60
2019-04-27T04:55:15.250Z,98225.75
2019-04-27T04:57:49.931Z,98223.81
2019-04-27T05:00:22.271Z,98230.36
2019-04-27T05:02:55.952Z,98227.83
2019-04-27T05:05:29.473Z,98229.48
2019-04-27T05:08:00.954Z,98230.20
2019-04-27T05:10:35.008Z,98227.89
2019-04-27T05:13:09.343Z,98237.69
2019-04-27T05:15:42.823Z,98231.78
2019-04-27T05:18:15.972Z,98240.48
2019-04-27T05:20:58.505Z,98240.81
2019-04-27T05:23:31.741Z,98239.49
2019-04-27T05:26:05.687Z,98239.30
2019-04-27T05:28:40.777Z,98246.45
2019-04-27T05:31:14.012Z,98251.77
2019-04-27T05:33:48.864Z,98248.66
2019-04-27T05:36:22.007Z,98255.41
2019-04-27T05:38:54.992Z,98251.53
2019-04-27T05:41:26.251Z,98245.52
2019-04-27T05:44:18.443Z,98244.00
2019-04-27T05:47:25.608Z,98243.80
2019-04-27T05:50:09.160Z,98243.34
2019-04-27T05:52:41.875Z,98239.64
2019-04-27T05:55:15.184Z,98244.80
2019-04-27T05:57:48.876Z,98243.32
2019-04-27T06:00:22.226Z,98249.10
2019-04-27T06:02:55.217Z,98244.98
2019-04-27T06:05:29.253Z,98241.27
2019-04-27T06:08:02.730Z,98245.25
2019-04-27T06:10:35.213Z,98243.41
2019-04-27T06:13:08.457Z,98237.23
2019-04-27T06:15:42.592Z,98241.94
2019-04-27T06:18:16.020Z,98241.94
2019-04-27T06:20:54.953Z,98241.02
2019-04-27T06:23:24.103Z,98235.80
2019-04-27T06:25:56.867Z,98239.60
2019-04-27T06:28:31.454Z,98241.37
2019-04-27T06:31:04.857Z,98240.27
2019-04-27T06:33:39.189Z,98237.32
2019-04-27T06:36:13.417Z,98233.70
2019-04-27T06:38:48.571Z,98239.97
2019-04-27T06:41:23.295Z,98243.58
2019-04-27T06:43:56.942Z,98238.09
2019-04-27T06:46:30.598Z,98238.08
2019-04-27T06:49:03.615Z,98242.91
2019-04-27T06:51:36.981Z,98243.53
2019-04-27T06:54:10.026Z,98240.98
2019-04-27T06:56:43.711Z,98248.64
2019-04-27T06:59:18.627Z,98245.12
2019-04-27T07:01:55.977Z,98249.83
2019-04-27T07:04:30.197Z,98250.16
2019-04-27T07:07:04.033Z,98247.12
2019-04-27T07:09:38.927Z,98252.70
2019-04-27T07:12:16.888Z,98255.17
2019-04-27T07:14:54.869Z,98253.39
2019-04-27T07:17:29.411Z,98257.64
2019-04-27T07:20:02.199Z,98252.09
2019-04-27T07:22:35.093Z,98255.14
2019-04-27T07:25:09.037Z,98249.38
2019-04-27T07:27:44.407Z,98249.89
2019-04-27T07:30:19.024Z,98245.00
2019-04-27T07:32:52.872Z,98244.22
2019-04-27T07:35:25.995Z,98241.19
2019-04-27T07:37:59.685Z,98237.00
2019-04-27T07:40:33.966Z,98233.31
2019-04-27T07:43:14.639Z,98226.83
2019-04-27T07:45:49.442Z,98229.61
2019-04-27T07:48:23.925Z,98233.01
2019-04-27T07:50:59.079Z,98225.83
2019-04-27T07:53:32.724Z,98228.56
2019-04-27T07:56:05.754Z,98233.18
2019-04-27T07:58:39.637Z,98226.16
2019-04-27T08:01:13.008Z,98220.03
2019-04-27T08:03:45.937Z,98219.17
2019-04-27T08:06:19.288Z,98208.79
2019-04-27T08:08:52.996Z,98212.06
2019-04-27T08:11:26.572Z,98218.75
2019-04-27T08:14:00.077Z,98218.74
2019-04-27T08:16:34.796Z,98219.95
2019-04-27T08:19:09.911Z,98221.44
2019-04-27T08:21:46.549Z,98212.13
2019-04-27T08:24:19.660Z,98211.19
2019-04-27T08:26:59.450Z,98205.54
2019-04-27T08:29:58.786Z,98199.10
2019-04-27T08:32:41.353Z,98199.05
2019-04-27T08:35:15.585Z,98200.67
2019-04-27T08:37:49.501Z,98201.42
2019-04-27T08:40:22.949Z,98189.29
2019-04-27T08:42:55.658Z,98185.95
2019-04-27T08:45:29.289Z,98187.89
2019-04-27T08:48:03.700Z,98189.06
2019-04-27T08:50:39.727Z,98187.36
2019-04-27T08:53:12.251Z,98183.80
2019-04-27T08:55:43.255Z,98184.17
2019-04-27T08:58:15.700Z,98181.47
2019-04-27T09:00:49.220Z,98179.49
2019-04-27T09:03:22.502Z,98171.40
2019-04-27T09:05:56.008Z,98170.55
2019-04-27T09:08:41.269Z,98172.90
2019-04-27T09:11:42.441Z,98168.59
2019-04-27T09:14:22.799Z,98160.88
2019-04-27T09:17:06.715Z,98150.11
2019-04-27T09:19:55.032Z,98150.48
2019-04-27T09:22:28.987Z,98147.37
2019-04-27T09:25:02.155Z,98139.41
2019-04-27T09:27:35.615Z,98135.78
2019-04-27T09:30:10.328Z,98128.19
2019-04-27T09:32:43.209Z,98123.70
2019-04-27T09:35:16.142Z,98131.23
2019-04-27T09:37:51.695Z,98128.44
2019-04-27T09:40:26.740Z,98125.25
2019-04-27T09:43:00.051Z,98122.28
2019-04-27T09:45:33.799Z,98123.33
2019-04-27T09:48:06.784Z,98123.57
2019-04-27T09:50:40.107Z,98116.06
2019-04-27T09:53:15.736Z,98112.28
2019-04-27T09:55:48.918Z,98104.05
2019-04-27T09:58:21.795Z,98091.03
2019-04-27T10:00:56.817Z,98105.47
2019-04-27T10:03:30.402Z,98099.79
2019-04-27T10:06:05.751Z,98092.60
2019-04-27T10:08:39.871Z,98092.48
2019-04-27T10:11:13.002Z,98089.97
2019-04-27T10:13:50.032Z,98088.05
2019-04-27T10:16:23.408Z,98089.13
2019-04-27T10:18:56.643Z,98088.39
2019-04-27T10:21:29.960Z,98076.41
2019-04-27T10:24:02.622Z,98078.13
2019-04-27T10:26:36.236Z,98079.30
2019-04-27T10:29:09.666Z,98075.70
2019-04-27T10:31:42.625Z,98068.80
2019-04-27T10:34:16.887Z,98062.48
2019-04-27T10:36:50.267Z,98061.73
2019-04-27T10:39:23.327Z,98052.09
2019-04-27T10:41:56.535Z,98051.69
2019-04-27T10:44:31.672Z,98041.13
2019-04-27T10:47:05.859Z,98045.20
2019-04-27T10:49:38.706Z,98049.20
2019-04-27T10:52:11.706Z,98052.14
2019-04-27T10:54:47.459Z,98059.94
2019-04-27T10:57:20.141Z,98043.95
2019-04-27T10:59:52.051Z,98047.55
2019-04-27T11:02:24.046Z,98056.50
2019-04-27T11:05:20.920Z,98053.41
2019-04-27T11:07:56.458Z,98060.44
2019-04-27T11:10:29.796Z,98049.95
2019-04-27T11:13:03.297Z,98050.24
2019-04-27T11:15:37.193Z,98036.89
2019-04-27T11:18:10.309Z,98023.09
2019-04-27T11:20:43.369Z,98022.28
2019-04-27T11:23:16.469Z,98018.77
2019-04-27T11:25:49.616Z,98015.39
2019-04-27T11:28:22.958Z,98016.53
2019-04-27T11:30:55.960Z,98015.09
2019-04-27T11:33:29.840Z,98007.23
2019-04-27T11:36:20.094Z,98011.66
2019-04-27T11:38:53.939Z,98008.45
2019-04-27T11:41:27.120Z,98010.06
2019-04-27T11:44:01.029Z,98002.22
2019-04-27T11:46:34.793Z,98003.63
2019-04-27T11:49:08.623Z,97998.55
2019-04-27T11:51:41.786Z,97997.92
2019-04-27T11:54:14.442Z,97993.35
2019-04-27T11:56:47.289Z,97994.94
2019-04-27T11:59:20.081Z,97994.15
2019-04-27T12:01:53.523Z,97995.34
2019-04-27T12:04:27.416Z,97999.00
2019-04-27T12:07:01.109Z,97988.94
2019-04-27T12:09:34.604Z,97990.06
2019-04-27T12:12:14.983Z,97987.59
2019-04-27T12:14:42.857Z,97989.06
2019-04-27T12:17:16.808Z,97974.13
2019-04-27T12:19:50.088Z,97975.81
2019-04-27T12:22:23.467Z,97975.47
2019-04-27T12:24:56.287Z,97976.00
2019-04-27T12:27:54.188Z,97977.80
2019-04-27T12:30:31.136Z,97975.52
2019-04-27T12:33:03.877Z,97998.98
2019-04-27T12:35:36.939Z,98007.64
2019-04-27T12:38:10.978Z,98016.81
2019-04-27T12:40:44.429Z,98017.58
2019-04-27T12:43:17.530Z,98027.27
2019-04-27T12:45:50.546Z,98028.16
2019-04-27T12:48:24.982Z,98035.38
2019-04-27T12:50:57.789Z,98035.59
2019-04-27T12:53:48.307Z,98036.56
2019-04-27T12:56:22.124Z,98036.69
2019-04-27T12:59:12.718Z,98033.16
2019-04-27T13:01:46.606Z,98028.28
2019-04-27T13:04:19.927Z,98027.55
2019-04-27T13:06:55.755Z,98022.54
2019-04-27T13:09:28.739Z,98022.47
2019-04-27T13:12:02.683Z,98010.72
2019-04-27T13:14:37.370Z,98009.41
2019-04-27T13:17:10.448Z,98011.34
2019-04-27T13:19:45.650Z,98007.77
2019-04-27T13:22:18.802Z,98010.30
2019-04-27T13:24:52.717Z,98013.58
2019-04-27T13:27:26.975Z,98003.69
2019-04-27T13:30:00.094Z,98003.43
2019-04-27T13:32:32.397Z,98003.55
2019-04-27T13:35:06.029Z,97996.00
2019-04-27T13:37:42.041Z,97998.63
2019-04-27T13:40:17.195Z,97993.91
2019-04-27T13:43:00.422Z,97995.19
2019-04-27T13:45:46.650Z,97993.71
2019-04-27T13:48:40.604Z,97994.23
2019-04-27T13:51:16.644Z,97989.56
2019-04-27T13:53:50.733Z,97994.92
2019-04-27T13:56:24.862Z,97984.39
2019-04-27T13:58:58.427Z,97992.74
2019-04-27T14:01:32.196Z,98002.86
2019-04-27T14:04:07.101Z,98026.77
2019-04-27T14:06:41.811Z,98033.73
2019-04-27T14:09:14.937Z,98034.96
2019-04-27T14:11:48.350Z,98041.97
2019-04-27T14:14:21.118Z,98046.22
2019-04-27T14:16:53.634Z,98040.64
2019-04-27T14:19:28.284Z,98035.75
2019-04-27T14:22:01.989Z,98029.02
2019-04-27T14:24:43.738Z,98022.35
2019-04-27T14:27:18.345Z,98018.27
2019-04-27T14:29:51.000Z,98009.62
2019-04-27T14:32:24.931Z,98009.86
2019-04-27T14:34:59.211Z,97995.05
2019-04-27T14:37:33.189Z,97987.14
2019-04-27T14:40:08.346Z,97992.69
2019-04-27T14:42:41.834Z,97984.54
2019-04-27T14:45:14.956Z,97983.96
2019-04-27T14:47:48.518Z,97982.98
2019-04-27T14:50:21.356Z,97979.80
2019-04-27T14:52:54.194Z,97982.16
2019-04-27T14:55:28.255Z,97976.69
2019-04-27T14:58:03.162Z,97985.74
2019-04-27T15:00:38.498Z,97982.63
2019-04-27T15:03:12.476Z,97980.00
2019-04-27T15:05:49.776Z,97978.28
2019-04-27T15:08:21.634Z,97979.16
2019-04-27T15:10:55.334Z,97978.39
2019-04-27T15:13:29.338Z,97979.50
2019-04-27T15:16:06.755Z,97979.16
2019-04-27T15:18:44.405Z,97975.48
2019-04-27T15:21:20.318Z,97976.50
2019-04-27T15:23:54.507Z,97980.81
2019-04-27T15:26:27.881Z,97978.87
2019-04-27T15:29:01.660Z,97983.48
2019-04-27T15:31:40.871Z,97986.11
2019-04-27T15:34:23.415Z,97982.45
2019-04-27T15:37:09.453Z,97982.28
2019-04-27T15:40:10.004Z,97979.11
2019-04-27T15:42:52.838Z,97973.22
2019-04-27T15:45:24.965Z,97961.92
2019-04-27T15:47:58.957Z,97951.08
2019-04-27T15:50:32.840Z,97955.24
2019-04-27T15:53:09.876Z,97947.54
2019-04-27T15:55:41.447Z,97937.63
2019-04-27T15:58:13.151Z,97933.80
2019-04-27T16:00:51.264Z,97933.24
2019-04-27T16:03:22.851Z,97936.63
2019-04-27T16:05:58.703Z,97928.17
2019-04-27T16:08:31.541Z,97928.95
2019-04-27T16:11:05.268Z,97917.03
2019-04-27T16:13:38.552Z,97930.02
2019-04-27T16:16:12.236Z,97929.22
2019-04-27T16:18:46.297Z,97923.64
2019-04-27T16:21:20.046Z,97932.77
2019-04-27T16:23:53.032Z,97934.06
2019-04-27T16:26:28.181Z,97931.71
2019-04-27T16:29:01.814Z,97926.64
2019-04-27T16:31:36.770Z,97915.22
2019-04-27T16:34:09.903Z,97921.61
2019-04-27T16:36:44.598Z,97920.95
2019-04-27T16:39:20.442Z,98052.44
2019-04-27T16:41:52.914Z,98036.54
2019-04-27T16:44:26.487Z,98042.36
2019-04-27T16:46:59.220Z,98055.30
2019-04-27T16:49:31.946Z,98068.80
2019-04-27T16:52:05.272Z,98057.47
2019-04-27T16:54:41.587Z,98054.16
2019-04-27T16:57:15.292Z,98063.39
2019-04-27T16:59:54.894Z,98060.34
2019-04-27T17:02:25.310Z,98079.97
2019-04-27T17:04:59.225Z,98083.95
2019-04-27T17:07:37.562Z,98087.20
2019-04-27T17:10:09.011Z,98073.34
2019-04-27T17:12:45.899Z,98082.27
2019-04-27T17:15:39.041Z,98099.12
2019-04-27T17:18:38.463Z,98093.62
2019-04-27T17:21:18.780Z,98092.20
2019-04-27T17:23:48.149Z,98083.78
2019-04-27T17:26:21.875Z,98077.98
2019-04-27T17:29:00.958Z,98081.95
2019-04-27T17:31:37.826Z,98102.02
2019-04-27T17:34:11.609Z,98110.99
2019-04-27T17:36:42.935Z,98121.49
2019-04-27T17:39:15.329Z,98137.91
2019-04-27T17:41:52.182Z,98139.61
2019-04-27T17:44:32.159Z,98137.59
2019-04-27T17:47:06.466Z,98135.41
2019-04-27T17:49:39.776Z,98137.48
2019-04-27T17:52:17.201Z,98140.28
2019-04-27T17:54:48.790Z,98154.45
2019-04-27T17:57:26.128Z,98147.32
2019-04-27T18:00:00.133Z,98164.08
2019-04-27T18:02:33.826Z,98170.08
2019-04-27T18:05:09.533Z,98164.64
2019-04-27T18:07:44.505Z,98154.50
2019-04-27T18:10:23.187Z,98156.81
2019-04-27T18:12:53.475Z,98171.03
2019-04-27T18:15:26.527Z,98180.43
2019-04-27T18:18:01.907Z,98180.86
2019-04-27T18:20:35.148Z,98176.03
2019-04-27T18:23:15.093Z,98173.88
2019-04-27T18:25:53.137Z,98169.00
2019-04-27T18:28:31.828Z,98172.02
2019-04-27T18:31:11.638Z,98161.72
2019-04-27T18:33:44.211Z,98168.38
2019-04-27T18:36:18.226Z,98178.94
2019-04-27T18:38:52.357Z,98196.80
2019-04-27T18:41:25.863Z,98204.03
2019-04-27T18:44:00.432Z,98205.91
2019-04-27T18:46:34.151Z,98201.73
2019-04-27T18:49:35.509Z,98201.94
2019-04-27T18:52:26.984Z,98209.23
2019-04-27T18:55:01.536Z,98207.77
2019-04-27T18:57:34.794Z,98213.41
2019-04-27T19:00:11.410Z,98213.13
2019-04-27T19:02:44.975Z,98222.89
2019-04-27T19:05:19.022Z,98220.02
2019-04-27T19:07:52.737Z,98223.13
2019-04-27T19:10:28.147Z,98220.69
2019-04-27T19:13:02.692Z,98224.76
2019-04-27T19:15:36.354Z,98219.30
2019-04-27T19:18:10.159Z,98231.37
2019-04-27T19:20:44.094Z,98231.77
2019-04-27T19:23:17.511Z,98230.95
2019-04-27T19:26:08.757Z,98231.98
2019-04-27T19:28:54.135Z,98231.33
2019-04-27T19:31:32.926Z,98228.05
2019-04-27T19:34:07.308Z,98231.33
2019-04-27T19:36:40.755Z,98234.65
2019-04-27T19:39:13.987Z,98227.97
2019-04-27T19:41:57.957Z,98232.61
2019-04-27T19:44:22.153Z,98233.20
2019-04-27T19:46:54.199Z,98232.26
2019-04-27T19:49:31.166Z,98234.05
2019-04-27T19:52:03.567Z,98233.19
2019-04-27T19:54:36.608Z,98235.50
2019-04-27T19:57:09.679Z,98234.89
2019-04-27T19:59:53.043Z,98238.33
2019-04-27T20:02:26.571Z,98241.48
2019-04-27T20:05:04.619Z,98240.34
2019-04-27T20:07:38.847Z,98240.69
2019-04-27T20:10:12.380Z,98242.22
2019-04-27T20:12:45.983Z,98245.03
2019-04-27T20:15:21.790Z,98250.74
2019-04-27T20:17:55.624Z,98253.38
2019-04-27T20:20:28.343Z,98260.73
2019-04-27T20:23:02.453Z,98259.80
2019-04-27T20:25:36.420Z,98259.98
2019-04-27T20:28:12.045Z,98267.45
2019-04-27T20:30:45.597Z,98274.64
2019-04-27T20:33:17.269Z,98278.72
2019-04-27T20:35:51.021Z,98278.47
2019-04-27T20:38:24.983Z,98287.83
2019-04-27T20:40:58.460Z,98289.52
2019-04-27T20:43:31.832Z,98286.87
2019-04-27T20:46:04.900Z,98294.27
2019-04-27T20:48:38.404Z,98296.80
2019-04-27T20:51:12.119Z,98298.69
2019-04-27T20:53:49.348Z,98295.78
2019-04-27T20:56:22.533Z,98293.14
2019-04-27T20:58:55.400Z,98290.38
2019-04-27T21:01:28.894Z,98292.42
2019-04-27T21:04:03.870Z,98293.20
2019-04-27T21:06:51.034Z,98295.33
2019-04-27T21:09:24.786Z,98302.14
2019-04-27T21:11:58.292Z,98310.88
2019-04-27T21:14:31.966Z,98315.27
2019-04-27T21:17:05.103Z,98317.86
2019-04-27T21:19:38.498Z,98318.92
2019-04-27T21:22:12.426Z,98321.30
2019-04-27T21:24:46.620Z,98331.40
2019-04-27T21:27:21.615Z,98340.04
2019-04-27T21:29:55.567Z,98337.83
2019-04-27T21:32:30.721Z,98337.78
2019-04-27T21:35:04.165Z,98340.16
2019-04-27T21:37:35.953Z,98345.31
2019-04-27T21:40:18.281Z,98348.77
2019-04-27T21:42:51.439Z,98346.85
2019-04-27T21:45:25.256Z,98351.53
2019-04-27T21:48:00.391Z,98353.20
2019-04-27T21:50:34.649Z,98351.83
2019-04-27T21:53:21.221Z,98352.56
2019-04-27T21:56:02.096Z,98346.42
2019-04-27T21:58:36.176Z,98345.10
2019-04-27T22:01:13.950Z,98347.01
2019-04-27T22:03:47.767Z,98353.02
2019-04-27T22:06:20.918Z,98345.31
2019-04-27T22:08:54.539Z,98348.59
2019-04-27T22:11:31.938Z,98350.04
2019-04-27T22:14:06.552Z,98353.63
2019-04-27T22:16:41.651Z,98354.95
2019-04-27T22:19:15.167Z,98347.78
2019-04-27T22:21:48.708Z,98350.94
2019-04-27T22:24:27.588Z,98353.20
2019-04-27T22:27:00.228Z,98364.61
2019-04-27T22:29:33.639Z,98358.39
2019-04-27T22:32:07.232Z,98359.89
2019-04-27T22:34:41.422Z,98371.08
2019-04-27T22:37:14.739Z,98373.80
2019-04-27T22:40:10.238Z,98376.20
2019-04-27T22:43:02.864Z,98385.13
2019-04-27T22:45:37.040Z,98385.41
2019-04-27T22:48:11.346Z,98392.70
2019-04-27T22:50:45.089Z,98405.65
2019-04-27T22:53:18.859Z,98398.58
2019-04-27T22:56:14.283Z,98399.68
2019-04-27T22:59:00.484Z,98407.34
2019-04-27T23:01:40.697Z,98412.75
2019-04-27T23:04:16.720Z,98401.25
2019-04-27T23:06:50.075Z,98399.68
2019-04-27T23:09:25.858Z,98406.63
2019-04-27T23:11:59.647Z,98403.89
2019-04-27T23:14:35.768Z,98399.30
2019-04-27T23:17:23.073Z,98401.72
2019-04-27T23:19:56.097Z,98404.95
2019-04-27T23:22:29.224Z,98403.92
2019-04-27T23:25:01.770Z,98411.30
2019-04-27T23:27:34.224Z,98415.64
2019-04-27T23:30:08.129Z,98412.50
2019-04-27T23:32:47.042Z,98408.67
2019-04-27T23:35:23.027Z,98413.95
2019-04-27T23:37:56.844Z,98418.50
2019-04-27T23:40:31.724Z,98422.20
2019-04-27T23:43:05.152Z,98418.38
2019-04-27T23:45:37.622Z,98421.14
2019-04-27T23:48:12.323Z,98420.16
2019-04-27T23:50:48.088Z,98420.54
2019-04-27T23:53:23.256Z,98424.63
2019-04-27T23:55:56.979Z,98424.91
2019-04-27T23:58:30.632Z,98417.34
